sensor_id;sensor_type;location;lat;lon;timestamp;temperature;humidity
18153;DHT22;9202;51.578;7.734;2023-05-07T00:03:17;13.40;99.90
18153;DHT22;9202;51.578;7.734;2023-05-07T00:05:21;13.50;99.90
18153;DHT22;9202;51.578;7.734;2023-05-07T00:07:23;13.50;99.90
18153;DHT22;9202;51.578;7.734;2023-05-07T00:09:26;13.50;99.90
18153;DHT22;9202;51.578;7.734;2023-05-07T00:11:28;13.50;99.90
18153;DHT22;9202;51.578;7.734;2023-05-07T00:13:31;13.40;99.90
18153;DHT22;9202;51.578;7.734;2023-05-07T00:15:35;13.50;99.90
18153;DHT22;9202;51.578;7.734;2023-05-07T00:17:38;13.50;99.90
18153;DHT22;9202;51.578;7.734;2023-05-07T00:19:40;13.50;99.90
18153;DHT22;9202;51.578;7.734;2023-05-07T00:21:43;13.50;99.90
18153;DHT22;9202;51.578;7.734;2023-05-07T00:23:45;13.50;99.90
18153;DHT22;9202;51.578;7.734;2023-05-07T00:25:48;13.50;99.90
18153;DHT22;9202;51.578;7.734;2023-05-07T00:27:51;13.50;99.90
18153;DHT22;9202;51.578;7.734;2023-05-07T00:29:53;13.60;99.90
18153;DHT22;9202;51.578;7.734;2023-05-07T00:31:56;13.60;99.90
18153;DHT22;9202;51.578;7.734;2023-05-07T00:33:58;13.50;99.90
18153;DHT22;9202;51.578;7.734;2023-05-07T00:36:01;13.60;99.90
18153;DHT22;9202;51.578;7.734;2023-05-07T00:38:03;13.60;99.90
18153;DHT22;9202;51.578;7.734;2023-05-07T00:40:07;13.60;99.90
18153;DHT22;9202;51.578;7.734;2023-05-07T00:42:10;13.70;99.90
18153;DHT22;9202;51.578;7.734;2023-05-07T00:44:13;13.60;99.90
18153;DHT22;9202;51.578;7.734;2023-05-07T00:46:16;13.60;99.90
18153;DHT22;9202;51.578;7.734;2023-05-07T00:48:18;13.60;99.90
18153;DHT22;9202;51.578;7.734;2023-05-07T00:50:21;13.70;99.90
18153;DHT22;9202;51.578;7.734;2023-05-07T00:52:24;13.60;99.90
18153;DHT22;9202;51.578;7.734;2023-05-07T00:54:27;13.60;99.90
18153;DHT22;9202;51.578;7.734;2023-05-07T00:56:30;13.60;99.90
18153;DHT22;9202;51.578;7.734;2023-05-07T00:58:33;13.60;99.90
18153;DHT22;9202;51.578;7.734;2023-05-07T01:00:37;13.60;99.90
18153;DHT22;9202;51.578;7.734;2023-05-07T01:02:39;13.60;99.90
18153;DHT22;9202;51.578;7.734;2023-05-07T01:04:42;13.60;99.90
18153;DHT22;9202;51.578;7.734;2023-05-07T01:06:45;13.60;99.90
18153;DHT22;9202;51.578;7.734;2023-05-07T01:08:48;13.50;99.90
18153;DHT22;9202;51.578;7.734;2023-05-07T01:10:52;13.50;99.90
18153;DHT22;9202;51.578;7.734;2023-05-07T01:12:55;13.50;99.90
18153;DHT22;9202;51.578;7.734;2023-05-07T01:14:58;13.50;99.90
18153;DHT22;9202;51.578;7.734;2023-05-07T01:17:00;13.50;99.90
18153;DHT22;9202;51.578;7.734;2023-05-07T01:19:03;13.60;99.90
18153;DHT22;9202;51.578;7.734;2023-05-07T01:21:06;13.50;99.90
18153;DHT22;9202;51.578;7.734;2023-05-07T01:23:11;13.50;99.90
18153;DHT22;9202;51.578;7.734;2023-05-07T01:25:13;13.50;99.90
18153;DHT22;9202;51.578;7.734;2023-05-07T01:27:19;13.40;99.90
18153;DHT22;9202;51.578;7.734;2023-05-07T01:29:24;13.40;99.90
18153;DHT22;9202;51.578;7.734;2023-05-07T01:31:26;13.30;99.90
18153;DHT22;9202;51.578;7.734;2023-05-07T01:33:29;13.40;99.90
18153;DHT22;9202;51.578;7.734;2023-05-07T01:35:34;13.40;99.90
18153;DHT22;9202;51.578;7.734;2023-05-07T01:37:37;13.40;99.90
18153;DHT22;9202;51.578;7.734;2023-05-07T01:39:40;13.40;99.90
18153;DHT22;9202;51.578;7.734;2023-05-07T01:41:43;13.40;99.90
18153;DHT22;9202;51.578;7.734;2023-05-07T01:43:46;13.30;99.90
18153;DHT22;9202;51.578;7.734;2023-05-07T01:45:49;13.20;99.90
18153;DHT22;9202;51.578;7.734;2023-05-07T01:47:52;13.30;99.90
18153;DHT22;9202;51.578;7.734;2023-05-07T01:49:55;13.20;99.90
18153;DHT22;9202;51.578;7.734;2023-05-07T01:51:58;13.20;99.90
18153;DHT22;9202;51.578;7.734;2023-05-07T01:54:01;13.30;99.90
18153;DHT22;9202;51.578;7.734;2023-05-07T01:56:04;13.20;99.90
18153;DHT22;9202;51.578;7.734;2023-05-07T01:58:08;13.30;99.90
18153;DHT22;9202;51.578;7.734;2023-05-07T02:00:11;13.20;99.90
18153;DHT22;9202;51.578;7.734;2023-05-07T02:02:16;13.20;99.90
18153;DHT22;9202;51.578;7.734;2023-05-07T02:04:19;13.20;99.90
18153;DHT22;9202;51.578;7.734;2023-05-07T02:06:22;13.20;99.90
18153;DHT22;9202;51.578;7.734;2023-05-07T02:08:26;13.10;99.90
18153;DHT22;9202;51.578;7.734;2023-05-07T02:10:29;13.20;99.90
18153;DHT22;9202;51.578;7.734;2023-05-07T02:12:32;13.20;99.90
18153;DHT22;9202;51.578;7.734;2023-05-07T02:14:36;13.30;99.90
18153;DHT22;9202;51.578;7.734;2023-05-07T02:16:38;13.20;99.90
18153;DHT22;9202;51.578;7.734;2023-05-07T02:21:00;13.20;99.90
18153;DHT22;9202;51.578;7.734;2023-05-07T02:23:03;13.30;99.90
18153;DHT22;9202;51.578;7.734;2023-05-07T02:25:07;13.30;99.90
18153;DHT22;9202;51.578;7.734;2023-05-07T02:27:09;13.30;99.90
18153;DHT22;9202;51.578;7.734;2023-05-07T02:29:12;13.30;99.90
18153;DHT22;9202;51.578;7.734;2023-05-07T02:31:15;13.30;99.90
18153;DHT22;9202;51.578;7.734;2023-05-07T02:33:18;13.30;99.90
18153;DHT22;9202;51.578;7.734;2023-05-07T02:35:21;13.30;99.90
18153;DHT22;9202;51.578;7.734;2023-05-07T02:37:23;13.30;99.90
18153;DHT22;9202;51.578;7.734;2023-05-07T02:39:26;13.30;99.90
18153;DHT22;9202;51.578;7.734;2023-05-07T02:41:29;13.30;99.90
18153;DHT22;9202;51.578;7.734;2023-05-07T02:43:31;13.30;99.90
18153;DHT22;9202;51.578;7.734;2023-05-07T02:45:34;13.30;99.90
18153;DHT22;9202;51.578;7.734;2023-05-07T02:47:38;13.20;99.90
18153;DHT22;9202;51.578;7.734;2023-05-07T02:49:41;13.20;99.90
18153;DHT22;9202;51.578;7.734;2023-05-07T02:51:45;13.10;99.90
18153;DHT22;9202;51.578;7.734;2023-05-07T02:53:49;13.20;99.90
18153;DHT22;9202;51.578;7.734;2023-05-07T02:55:52;13.10;99.90
18153;DHT22;9202;51.578;7.734;2023-05-07T02:57:55;13.10;99.90
18153;DHT22;9202;51.578;7.734;2023-05-07T02:59:58;13.10;99.90
18153;DHT22;9202;51.578;7.734;2023-05-07T03:04:18;13.10;99.90
18153;DHT22;9202;51.578;7.734;2023-05-07T03:06:21;13.10;99.90
18153;DHT22;9202;51.578;7.734;2023-05-07T03:08:23;13.00;99.90
18153;DHT22;9202;51.578;7.734;2023-05-07T03:10:26;13.00;99.90
18153;DHT22;9202;51.578;7.734;2023-05-07T03:12:29;13.00;99.90
18153;DHT22;9202;51.578;7.734;2023-05-07T03:14:31;13.00;99.90
18153;DHT22;9202;51.578;7.734;2023-05-07T03:16:34;12.90;99.90
18153;DHT22;9202;51.578;7.734;2023-05-07T03:18:37;12.90;99.90
18153;DHT22;9202;51.578;7.734;2023-05-07T03:20:39;12.90;99.90
18153;DHT22;9202;51.578;7.734;2023-05-07T03:22:42;12.90;99.90
18153;DHT22;9202;51.578;7.734;2023-05-07T03:24:45;12.90;99.90
18153;DHT22;9202;51.578;7.734;2023-05-07T03:26:47;12.90;99.90
18153;DHT22;9202;51.578;7.734;2023-05-07T03:28:50;12.90;99.90
18153;DHT22;9202;51.578;7.734;2023-05-07T03:30:53;12.90;99.90
18153;DHT22;9202;51.578;7.734;2023-05-07T03:32:56;12.90;99.90
18153;DHT22;9202;51.578;7.734;2023-05-07T03:34:58;12.90;99.90
18153;DHT22;9202;51.578;7.734;2023-05-07T03:37:01;12.90;99.90
18153;DHT22;9202;51.578;7.734;2023-05-07T03:39:04;12.90;99.90
18153;DHT22;9202;51.578;7.734;2023-05-07T03:41:08;12.90;99.90
18153;DHT22;9202;51.578;7.734;2023-05-07T03:43:11;12.80;99.90
18153;DHT22;9202;51.578;7.734;2023-05-07T03:45:15;12.80;99.90
18153;DHT22;9202;51.578;7.734;2023-05-07T03:47:20;12.80;99.90
18153;DHT22;9202;51.578;7.734;2023-05-07T03:49:23;12.90;99.90
18153;DHT22;9202;51.578;7.734;2023-05-07T03:51:25;12.90;99.90
18153;DHT22;9202;51.578;7.734;2023-05-07T03:53:28;12.90;99.90
18153;DHT22;9202;51.578;7.734;2023-05-07T03:55:31;13.00;99.90
18153;DHT22;9202;51.578;7.734;2023-05-07T03:57:34;13.00;99.90
18153;DHT22;9202;51.578;7.734;2023-05-07T03:59:36;12.90;99.90
18153;DHT22;9202;51.578;7.734;2023-05-07T04:01:39;13.00;99.90
18153;DHT22;9202;51.578;7.734;2023-05-07T04:03:42;12.90;99.90
18153;DHT22;9202;51.578;7.734;2023-05-07T04:05:45;12.90;99.90
18153;DHT22;9202;51.578;7.734;2023-05-07T04:07:47;12.90;99.90
18153;DHT22;9202;51.578;7.734;2023-05-07T04:09:51;12.90;99.90
18153;DHT22;9202;51.578;7.734;2023-05-07T04:11:53;12.90;99.90
18153;DHT22;9202;51.578;7.734;2023-05-07T04:13:57;12.90;99.90
18153;DHT22;9202;51.578;7.734;2023-05-07T04:16:00;12.90;99.90
18153;DHT22;9202;51.578;7.734;2023-05-07T04:18:03;12.90;99.90
18153;DHT22;9202;51.578;7.734;2023-05-07T04:20:08;12.80;99.90
18153;DHT22;9202;51.578;7.734;2023-05-07T04:22:12;12.90;99.90
18153;DHT22;9202;51.578;7.734;2023-05-07T04:24:14;12.80;99.90
18153;DHT22;9202;51.578;7.734;2023-05-07T04:26:17;12.80;99.90
18153;DHT22;9202;51.578;7.734;2023-05-07T04:28:21;12.90;99.90
18153;DHT22;9202;51.578;7.734;2023-05-07T04:30:24;12.90;99.90
18153;DHT22;9202;51.578;7.734;2023-05-07T04:34:45;12.90;99.90
18153;DHT22;9202;51.578;7.734;2023-05-07T04:36:48;12.90;99.90
18153;DHT22;9202;51.578;7.734;2023-05-07T04:38:50;12.90;99.90
18153;DHT22;9202;51.578;7.734;2023-05-07T04:40:53;12.90;99.90
18153;DHT22;9202;51.578;7.734;2023-05-07T04:42:57;12.90;99.90
18153;DHT22;9202;51.578;7.734;2023-05-07T04:45:00;12.90;99.90
18153;DHT22;9202;51.578;7.734;2023-05-07T04:47:05;12.90;99.90
18153;DHT22;9202;51.578;7.734;2023-05-07T04:49:08;13.00;99.90
18153;DHT22;9202;51.578;7.734;2023-05-07T04:51:10;12.90;99.90
18153;DHT22;9202;51.578;7.734;2023-05-07T04:53:13;13.00;99.90
18153;DHT22;9202;51.578;7.734;2023-05-07T04:55:16;13.00;99.90
18153;DHT22;9202;51.578;7.734;2023-05-07T04:57:19;12.90;99.90
18153;DHT22;9202;51.578;7.734;2023-05-07T04:59:22;13.00;99.90
18153;DHT22;9202;51.578;7.734;2023-05-07T05:01:25;13.00;99.90
18153;DHT22;9202;51.578;7.734;2023-05-07T05:03:27;13.00;99.90
18153;DHT22;9202;51.578;7.734;2023-05-07T05:05:30;13.00;99.90
18153;DHT22;9202;51.578;7.734;2023-05-07T05:07:33;13.00;99.90
18153;DHT22;9202;51.578;7.734;2023-05-07T05:09:36;13.00;99.90
18153;DHT22;9202;51.578;7.734;2023-05-07T05:11:39;13.00;99.90
18153;DHT22;9202;51.578;7.734;2023-05-07T05:13:42;13.00;99.90
18153;DHT22;9202;51.578;7.734;2023-05-07T05:15:46;13.10;99.90
18153;DHT22;9202;51.578;7.734;2023-05-07T05:17:50;13.00;99.90
18153;DHT22;9202;51.578;7.734;2023-05-07T05:19:53;13.10;99.90
18153;DHT22;9202;51.578;7.734;2023-05-07T05:21:56;13.10;99.90
18153;DHT22;9202;51.578;7.734;2023-05-07T05:23:58;13.00;99.90
18153;DHT22;9202;51.578;7.734;2023-05-07T05:26:01;13.10;99.90
18153;DHT22;9202;51.578;7.734;2023-05-07T05:28:06;13.10;99.90
18153;DHT22;9202;51.578;7.734;2023-05-07T05:32:24;13.20;99.90
18153;DHT22;9202;51.578;7.734;2023-05-07T05:34:29;13.30;99.90
18153;DHT22;9202;51.578;7.734;2023-05-07T05:36:32;13.30;99.90
18153;DHT22;9202;51.578;7.734;2023-05-07T05:38:35;13.30;99.90
18153;DHT22;9202;51.578;7.734;2023-05-07T05:40:37;13.40;99.90
18153;DHT22;9202;51.578;7.734;2023-05-07T05:42:40;13.40;99.90
18153;DHT22;9202;51.578;7.734;2023-05-07T05:44:43;13.50;99.90
18153;DHT22;9202;51.578;7.734;2023-05-07T05:46:45;13.50;99.90
18153;DHT22;9202;51.578;7.734;2023-05-07T05:48:48;13.60;99.90
18153;DHT22;9202;51.578;7.734;2023-05-07T05:50:51;13.60;99.90
18153;DHT22;9202;51.578;7.734;2023-05-07T05:52:54;13.70;99.90
18153;DHT22;9202;51.578;7.734;2023-05-07T05:54:57;13.70;99.90
18153;DHT22;9202;51.578;7.734;2023-05-07T05:57:00;13.60;99.90
18153;DHT22;9202;51.578;7.734;2023-05-07T05:59:04;13.60;99.90
18153;DHT22;9202;51.578;7.734;2023-05-07T06:01:07;13.70;99.90
18153;DHT22;9202;51.578;7.734;2023-05-07T06:03:11;13.70;99.90
18153;DHT22;9202;51.578;7.734;2023-05-07T06:05:16;13.70;99.90
18153;DHT22;9202;51.578;7.734;2023-05-07T06:07:20;13.70;99.90
18153;DHT22;9202;51.578;7.734;2023-05-07T06:09:25;13.70;99.90
18153;DHT22;9202;51.578;7.734;2023-05-07T06:11:29;13.70;99.90
18153;DHT22;9202;51.578;7.734;2023-05-07T06:13:34;13.70;99.90
18153;DHT22;9202;51.578;7.734;2023-05-07T06:15:37;13.80;99.90
18153;DHT22;9202;51.578;7.734;2023-05-07T06:17:42;13.80;99.90
18153;DHT22;9202;51.578;7.734;2023-05-07T06:19:46;13.90;99.90
18153;DHT22;9202;51.578;7.734;2023-05-07T06:21:49;13.90;99.90
18153;DHT22;9202;51.578;7.734;2023-05-07T06:23:51;13.90;99.90
18153;DHT22;9202;51.578;7.734;2023-05-07T06:25:54;14.00;99.90
18153;DHT22;9202;51.578;7.734;2023-05-07T06:27:59;14.00;99.90
18153;DHT22;9202;51.578;7.734;2023-05-07T06:30:02;14.00;99.90
18153;DHT22;9202;51.578;7.734;2023-05-07T06:32:07;14.10;99.90
18153;DHT22;9202;51.578;7.734;2023-05-07T06:34:10;14.10;99.90
18153;DHT22;9202;51.578;7.734;2023-05-07T06:36:15;14.30;99.90
18153;DHT22;9202;51.578;7.734;2023-05-07T06:38:18;14.40;99.90
18153;DHT22;9202;51.578;7.734;2023-05-07T06:40:21;14.50;99.90
18153;DHT22;9202;51.578;7.734;2023-05-07T06:42:24;14.50;99.90
18153;DHT22;9202;51.578;7.734;2023-05-07T06:44:28;14.50;99.90
18153;DHT22;9202;51.578;7.734;2023-05-07T06:46:33;14.50;99.90
18153;DHT22;9202;51.578;7.734;2023-05-07T06:50:51;14.50;99.90
18153;DHT22;9202;51.578;7.734;2023-05-07T06:52:53;14.60;99.90
18153;DHT22;9202;51.578;7.734;2023-05-07T06:54:56;14.60;99.90
18153;DHT22;9202;51.578;7.734;2023-05-07T06:56:59;14.60;99.90
18153;DHT22;9202;51.578;7.734;2023-05-07T06:59:02;14.60;99.90
18153;DHT22;9202;51.578;7.734;2023-05-07T07:01:06;14.60;99.90
18153;DHT22;9202;51.578;7.734;2023-05-07T07:03:10;14.60;99.90
18153;DHT22;9202;51.578;7.734;2023-05-07T07:05:15;14.60;99.90
18153;DHT22;9202;51.578;7.734;2023-05-07T07:07:18;14.60;99.90
18153;DHT22;9202;51.578;7.734;2023-05-07T07:09:21;14.60;99.90
18153;DHT22;9202;51.578;7.734;2023-05-07T07:11:26;14.60;99.90
18153;DHT22;9202;51.578;7.734;2023-05-07T07:13:29;14.70;99.90
18153;DHT22;9202;51.578;7.734;2023-05-07T07:15:31;14.80;99.90
18153;DHT22;9202;51.578;7.734;2023-05-07T07:17:34;14.70;99.90
18153;DHT22;9202;51.578;7.734;2023-05-07T07:19:37;14.70;99.90
18153;DHT22;9202;51.578;7.734;2023-05-07T07:21:40;14.80;99.90
18153;DHT22;9202;51.578;7.734;2023-05-07T07:23:44;14.90;99.90
18153;DHT22;9202;51.578;7.734;2023-05-07T07:25:47;14.90;99.90
18153;DHT22;9202;51.578;7.734;2023-05-07T07:27:50;14.90;99.90
18153;DHT22;9202;51.578;7.734;2023-05-07T07:29:52;14.90;99.90
18153;DHT22;9202;51.578;7.734;2023-05-07T07:31:56;14.90;99.90
18153;DHT22;9202;51.578;7.734;2023-05-07T07:33:59;15.00;99.90
18153;DHT22;9202;51.578;7.734;2023-05-07T07:36:02;15.00;99.90
18153;DHT22;9202;51.578;7.734;2023-05-07T07:38:05;15.00;99.90
18153;DHT22;9202;51.578;7.734;2023-05-07T07:40:09;15.00;99.90
18153;DHT22;9202;51.578;7.734;2023-05-07T07:42:13;15.10;99.90
18153;DHT22;9202;51.578;7.734;2023-05-07T07:44:19;15.10;99.90
18153;DHT22;9202;51.578;7.734;2023-05-07T07:46:23;15.10;99.90
18153;DHT22;9202;51.578;7.734;2023-05-07T07:48:26;15.10;99.90
18153;DHT22;9202;51.578;7.734;2023-05-07T07:50:28;15.20;99.90
18153;DHT22;9202;51.578;7.734;2023-05-07T07:52:33;15.30;99.90
18153;DHT22;9202;51.578;7.734;2023-05-07T07:54:36;15.30;99.90
18153;DHT22;9202;51.578;7.734;2023-05-07T07:56:38;15.30;99.90
18153;DHT22;9202;51.578;7.734;2023-05-07T07:58:41;15.40;99.90
18153;DHT22;9202;51.578;7.734;2023-05-07T08:00:45;15.40;99.90
18153;DHT22;9202;51.578;7.734;2023-05-07T08:02:49;15.40;99.90
18153;DHT22;9202;51.578;7.734;2023-05-07T08:04:54;15.50;99.90
18153;DHT22;9202;51.578;7.734;2023-05-07T08:06:57;15.50;99.90
18153;DHT22;9202;51.578;7.734;2023-05-07T08:09:00;15.60;99.90
18153;DHT22;9202;51.578;7.734;2023-05-07T08:11:03;15.70;99.90
18153;DHT22;9202;51.578;7.734;2023-05-07T08:13:07;15.80;99.90
18153;DHT22;9202;51.578;7.734;2023-05-07T08:15:11;15.90;99.90
18153;DHT22;9202;51.578;7.734;2023-05-07T08:17:14;16.00;99.90
18153;DHT22;9202;51.578;7.734;2023-05-07T08:19:18;16.10;99.90
18153;DHT22;9202;51.578;7.734;2023-05-07T08:21:20;16.10;99.90
18153;DHT22;9202;51.578;7.734;2023-05-07T08:23:23;16.10;99.90
18153;DHT22;9202;51.578;7.734;2023-05-07T08:25:26;16.20;99.90
18153;DHT22;9202;51.578;7.734;2023-05-07T08:27:29;16.40;99.90
18153;DHT22;9202;51.578;7.734;2023-05-07T08:29:31;16.70;99.90
18153;DHT22;9202;51.578;7.734;2023-05-07T08:31:34;16.90;99.90
18153;DHT22;9202;51.578;7.734;2023-05-07T08:33:37;17.00;99.90
18153;DHT22;9202;51.578;7.734;2023-05-07T08:35:40;17.20;99.90
18153;DHT22;9202;51.578;7.734;2023-05-07T08:37:43;17.50;99.90
18153;DHT22;9202;51.578;7.734;2023-05-07T08:39:46;17.60;99.90
18153;DHT22;9202;51.578;7.734;2023-05-07T08:41:50;17.50;99.90
18153;DHT22;9202;51.578;7.734;2023-05-07T08:43:55;17.40;99.90
18153;DHT22;9202;51.578;7.734;2023-05-07T08:45:59;17.60;99.90
18153;DHT22;9202;51.578;7.734;2023-05-07T08:48:05;17.40;99.90
18153;DHT22;9202;51.578;7.734;2023-05-07T08:50:10;17.30;99.90
18153;DHT22;9202;51.578;7.734;2023-05-07T08:52:14;17.30;99.90
18153;DHT22;9202;51.578;7.734;2023-05-07T08:54:17;17.30;99.90
18153;DHT22;9202;51.578;7.734;2023-05-07T08:56:20;17.60;99.90
18153;DHT22;9202;51.578;7.734;2023-05-07T08:58:24;17.70;99.90
18153;DHT22;9202;51.578;7.734;2023-05-07T09:00:27;17.80;99.90
18153;DHT22;9202;51.578;7.734;2023-05-07T09:02:29;17.70;99.90
18153;DHT22;9202;51.578;7.734;2023-05-07T09:04:32;17.60;99.90
18153;DHT22;9202;51.578;7.734;2023-05-07T09:06:35;17.80;99.90
18153;DHT22;9202;51.578;7.734;2023-05-07T09:08:38;17.70;99.90
18153;DHT22;9202;51.578;7.734;2023-05-07T09:10:41;18.00;99.90
18153;DHT22;9202;51.578;7.734;2023-05-07T09:12:44;18.30;99.90
18153;DHT22;9202;51.578;7.734;2023-05-07T09:14:49;18.60;99.90
18153;DHT22;9202;51.578;7.734;2023-05-07T09:16:53;18.50;99.90
18153;DHT22;9202;51.578;7.734;2023-05-07T09:18:57;18.30;99.90
18153;DHT22;9202;51.578;7.734;2023-05-07T09:20:59;18.10;99.90
18153;DHT22;9202;51.578;7.734;2023-05-07T09:23:02;18.30;99.90
18153;DHT22;9202;51.578;7.734;2023-05-07T09:25:06;18.60;99.90
18153;DHT22;9202;51.578;7.734;2023-05-07T09:27:09;19.00;99.90
18153;DHT22;9202;51.578;7.734;2023-05-07T09:29:13;18.80;99.90
18153;DHT22;9202;51.578;7.734;2023-05-07T09:31:18;18.90;99.90
18153;DHT22;9202;51.578;7.734;2023-05-07T09:33:24;18.80;99.90
18153;DHT22;9202;51.578;7.734;2023-05-07T09:35:29;19.00;99.90
18153;DHT22;9202;51.578;7.734;2023-05-07T09:37:34;18.60;99.90
18153;DHT22;9202;51.578;7.734;2023-05-07T09:39:39;18.90;99.90
18153;DHT22;9202;51.578;7.734;2023-05-07T09:41:46;19.20;99.90
18153;DHT22;9202;51.578;7.734;2023-05-07T09:43:53;19.50;99.90
18153;DHT22;9202;51.578;7.734;2023-05-07T09:45:56;19.50;99.90
18153;DHT22;9202;51.578;7.734;2023-05-07T09:48:01;19.40;99.90
18153;DHT22;9202;51.578;7.734;2023-05-07T09:50:06;19.30;99.90
18153;DHT22;9202;51.578;7.734;2023-05-07T09:52:11;19.10;99.90
18153;DHT22;9202;51.578;7.734;2023-05-07T09:54:17;18.90;99.90
18153;DHT22;9202;51.578;7.734;2023-05-07T09:56:21;18.60;99.90
18153;DHT22;9202;51.578;7.734;2023-05-07T09:58:25;18.60;99.90
18153;DHT22;9202;51.578;7.734;2023-05-07T10:00:28;18.60;99.90
18153;DHT22;9202;51.578;7.734;2023-05-07T10:02:33;18.70;99.90
18153;DHT22;9202;51.578;7.734;2023-05-07T10:04:37;18.80;99.90
18153;DHT22;9202;51.578;7.734;2023-05-07T10:06:39;18.90;99.90
18153;DHT22;9202;51.578;7.734;2023-05-07T10:08:43;19.00;99.90
18153;DHT22;9202;51.578;7.734;2023-05-07T10:10:45;19.10;99.90
18153;DHT22;9202;51.578;7.734;2023-05-07T10:12:50;19.00;99.90
18153;DHT22;9202;51.578;7.734;2023-05-07T10:14:55;19.00;99.90
18153;DHT22;9202;51.578;7.734;2023-05-07T10:16:58;19.20;99.90
18153;DHT22;9202;51.578;7.734;2023-05-07T10:19:02;19.40;99.90
18153;DHT22;9202;51.578;7.734;2023-05-07T10:21:06;19.60;99.90
18153;DHT22;9202;51.578;7.734;2023-05-07T10:23:10;19.70;99.90
18153;DHT22;9202;51.578;7.734;2023-05-07T10:25:17;19.90;99.90
18153;DHT22;9202;51.578;7.734;2023-05-07T10:27:21;20.00;99.90
18153;DHT22;9202;51.578;7.734;2023-05-07T10:29:30;20.00;99.90
18153;DHT22;9202;51.578;7.734;2023-05-07T10:31:39;20.30;99.90
18153;DHT22;9202;51.578;7.734;2023-05-07T10:33:43;20.20;99.90
18153;DHT22;9202;51.578;7.734;2023-05-07T10:35:46;20.40;99.90
18153;DHT22;9202;51.578;7.734;2023-05-07T10:38:00;20.50;99.90
18153;DHT22;9202;51.578;7.734;2023-05-07T10:40:13;20.40;99.90
18153;DHT22;9202;51.578;7.734;2023-05-07T10:42:16;20.50;99.90
18153;DHT22;9202;51.578;7.734;2023-05-07T10:44:26;20.20;99.90
18153;DHT22;9202;51.578;7.734;2023-05-07T10:46:32;20.10;99.90
18153;DHT22;9202;51.578;7.734;2023-05-07T10:51:19;20.30;99.90
18153;DHT22;9202;51.578;7.734;2023-05-07T10:53:25;20.40;99.90
18153;DHT22;9202;51.578;7.734;2023-05-07T10:55:32;20.50;99.90
18153;DHT22;9202;51.578;7.734;2023-05-07T10:57:36;20.40;99.90
18153;DHT22;9202;51.578;7.734;2023-05-07T10:59:40;20.20;99.90
18153;DHT22;9202;51.578;7.734;2023-05-07T11:01:53;20.20;99.90
18153;DHT22;9202;51.578;7.734;2023-05-07T11:04:13;20.40;99.90
18153;DHT22;9202;51.578;7.734;2023-05-07T11:06:17;20.60;99.90
18153;DHT22;9202;51.578;7.734;2023-05-07T11:08:22;20.50;99.90
18153;DHT22;9202;51.578;7.734;2023-05-07T11:12:50;20.60;99.90
18153;DHT22;9202;51.578;7.734;2023-05-07T11:14:55;20.60;99.90
18153;DHT22;9202;51.578;7.734;2023-05-07T11:17:02;20.10;99.90
18153;DHT22;9202;51.578;7.734;2023-05-07T11:19:05;20.30;99.90
18153;DHT22;9202;51.578;7.734;2023-05-07T11:21:10;20.60;99.90
18153;DHT22;9202;51.578;7.734;2023-05-07T11:25:38;20.90;99.90
18153;DHT22;9202;51.578;7.734;2023-05-07T11:27:42;20.90;99.90
18153;DHT22;9202;51.578;7.734;2023-05-07T11:29:47;20.60;99.90
18153;DHT22;9202;51.578;7.734;2023-05-07T11:31:50;20.60;99.90
18153;DHT22;9202;51.578;7.734;2023-05-07T11:33:53;20.10;99.90
18153;DHT22;9202;51.578;7.734;2023-05-07T11:35:56;19.80;99.90
18153;DHT22;9202;51.578;7.734;2023-05-07T11:38:01;19.80;99.90
18153;DHT22;9202;51.578;7.734;2023-05-07T11:40:06;19.90;99.90
18153;DHT22;9202;51.578;7.734;2023-05-07T11:42:25;19.90;99.90
18153;DHT22;9202;51.578;7.734;2023-05-07T11:44:40;19.80;99.90
18153;DHT22;9202;51.578;7.734;2023-05-07T11:46:43;19.80;99.90
18153;DHT22;9202;51.578;7.734;2023-05-07T11:48:46;19.90;99.90
18153;DHT22;9202;51.578;7.734;2023-05-07T11:50:52;20.00;99.90
18153;DHT22;9202;51.578;7.734;2023-05-07T11:52:56;20.30;99.90
18153;DHT22;9202;51.578;7.734;2023-05-07T11:54:59;20.30;99.90
18153;DHT22;9202;51.578;7.734;2023-05-07T11:57:01;20.20;99.90
18153;DHT22;9202;51.578;7.734;2023-05-07T11:59:05;20.30;99.90
18153;DHT22;9202;51.578;7.734;2023-05-07T12:01:09;20.40;99.90
18153;DHT22;9202;51.578;7.734;2023-05-07T12:03:12;20.50;99.90
18153;DHT22;9202;51.578;7.734;2023-05-07T12:05:15;20.50;99.90
18153;DHT22;9202;51.578;7.734;2023-05-07T12:07:19;20.40;99.90
18153;DHT22;9202;51.578;7.734;2023-05-07T12:09:22;20.00;99.90
18153;DHT22;9202;51.578;7.734;2023-05-07T12:11:25;20.00;99.90
18153;DHT22;9202;51.578;7.734;2023-05-07T12:13:29;20.10;99.90
18153;DHT22;9202;51.578;7.734;2023-05-07T12:15:35;20.00;99.90
18153;DHT22;9202;51.578;7.734;2023-05-07T12:17:39;20.00;99.90
18153;DHT22;9202;51.578;7.734;2023-05-07T12:19:42;19.90;99.90
18153;DHT22;9202;51.578;7.734;2023-05-07T12:21:46;20.00;99.90
18153;DHT22;9202;51.578;7.734;2023-05-07T12:23:49;20.10;99.90
18153;DHT22;9202;51.578;7.734;2023-05-07T12:25:52;20.10;99.90
18153;DHT22;9202;51.578;7.734;2023-05-07T12:27:55;20.20;99.90
18153;DHT22;9202;51.578;7.734;2023-05-07T12:30:00;20.30;99.90
18153;DHT22;9202;51.578;7.734;2023-05-07T12:32:04;20.40;99.90
18153;DHT22;9202;51.578;7.734;2023-05-07T12:34:08;20.60;99.90
18153;DHT22;9202;51.578;7.734;2023-05-07T12:36:12;20.60;99.90
18153;DHT22;9202;51.578;7.734;2023-05-07T12:38:16;20.80;99.90
18153;DHT22;9202;51.578;7.734;2023-05-07T12:42:35;21.40;99.90
18153;DHT22;9202;51.578;7.734;2023-05-07T12:44:39;21.50;99.90
18153;DHT22;9202;51.578;7.734;2023-05-07T12:46:43;21.30;99.90
18153;DHT22;9202;51.578;7.734;2023-05-07T12:48:46;21.10;99.90
18153;DHT22;9202;51.578;7.734;2023-05-07T12:50:50;21.00;99.90
18153;DHT22;9202;51.578;7.734;2023-05-07T12:52:54;21.10;99.90
18153;DHT22;9202;51.578;7.734;2023-05-07T12:54:57;21.20;99.90
18153;DHT22;9202;51.578;7.734;2023-05-07T12:57:02;21.10;99.90
18153;DHT22;9202;51.578;7.734;2023-05-07T12:59:05;21.10;99.90
18153;DHT22;9202;51.578;7.734;2023-05-07T13:01:08;21.10;99.90
18153;DHT22;9202;51.578;7.734;2023-05-07T13:03:11;21.10;99.90
18153;DHT22;9202;51.578;7.734;2023-05-07T13:05:14;20.90;99.90
18153;DHT22;9202;51.578;7.734;2023-05-07T13:07:16;20.80;99.90
18153;DHT22;9202;51.578;7.734;2023-05-07T13:09:19;20.70;99.90
18153;DHT22;9202;51.578;7.734;2023-05-07T13:11:22;20.70;99.90
18153;DHT22;9202;51.578;7.734;2023-05-07T13:13:24;20.70;99.90
18153;DHT22;9202;51.578;7.734;2023-05-07T13:15:27;20.60;99.90
18153;DHT22;9202;51.578;7.734;2023-05-07T13:17:30;20.50;99.90
18153;DHT22;9202;51.578;7.734;2023-05-07T13:19:33;20.40;99.90
18153;DHT22;9202;51.578;7.734;2023-05-07T13:21:35;20.30;99.90
18153;DHT22;9202;51.578;7.734;2023-05-07T13:25:53;20.30;99.90
18153;DHT22;9202;51.578;7.734;2023-05-07T13:27:56;20.20;99.90
18153;DHT22;9202;51.578;7.734;2023-05-07T13:32:15;20.10;99.90
18153;DHT22;9202;51.578;7.734;2023-05-07T13:34:18;20.00;99.90
18153;DHT22;9202;51.578;7.734;2023-05-07T13:36:20;19.90;99.90
18153;DHT22;9202;51.578;7.734;2023-05-07T13:38:23;19.90;99.90
18153;DHT22;9202;51.578;7.734;2023-05-07T13:40:26;19.80;99.90